MHROMHTG

Guest
Details From MHRO - Roatan
To MHTG - Tegucigalpa Toncontin Intl
Flight Number -
Tags generated
Created
Modified
Stats Distance 143 nm / 265 km
Max Altitude 14,300 ft / 4,359 m
Waypoints 5
Social Downloads 1
Likes 0
Share VATSIM

Download

Looking for another format? Having issues loading an existing format? Contact us
Advertisement - Login to hide

Notes

Basic altitude profile: - Ascent Rate: 2500ft/min - Ascent Speed: 250kts - Cruise Altitude: 23000ft - Cruise Speed: 420kts - Descent Rate: 1500ft/min - Descent Speed: 250kts Options: - Use NATs: yes - Use PACOTS: yes - Use low airways: yes - Use high airways: yes

Route

MHRO ROA R645 BTO A754 TALAG MHTG

ID Type Via Altitude Latitude Longitude Leg Dist Tot Dist Heading (true) Name
O MHRO APT - 0 ft / 0 m 16.31682˚ -86.52296˚ - 0 nm - Roatan
ROA VOR - 0 ft / 0 m 16.31655˚ -86.52178˚ 0 nm 0 nm 103° / 103° ROATAN VOR-DME
BTO VOR R645 (AWY-LO) 14,300 ft / 4,359 m 15.73676˚ -86.86397˚ 40 nm 40 nm 210° / 210° BONITO VOR-DME
TALAG FIX A754 (AWY-LO) 10,000 ft / 3,048 m 14.43639˚ -87.14278˚ 79 nm 119 nm 192° / 192° -
O MHTG APT - 0 ft / 0 m 14.06088˚ -87.21720˚ 22 nm 142 nm 191° / 191° Tegucigalpa Toncontin Intl

Altitude Profile

Advertisement - Login to hide

MHRO

Details ICAO MHRO (RTB)
Name Roatan
Region Honduras
Timezone Unknown (UTC+0.0)
Stats Elevation 18 ft / 5 m (AMSL)
Location 16.316816° -86.522961°
Runways 1
Magnetic Variation 1.410° W

METAR

MHRO 161600Z 09015KT 9999 SCT025 27/23 Q1017 A3003 NOSIG

Decode

TAF

Not found

Departure Runways

ID Width Length Bearing (true) Bearing (mag) Surface Threshold Offset Overrun Length
07 148 ft / 45 m 7,353 ft / 2,241 m 65.06° 66.47° Asphalt 200 ft / 61 m 0 ft / 0 m
25 148 ft / 45 m 7,353 ft / 2,241 m 245.06° 246.47° Asphalt 0 ft / 0 m 0 ft / 0 m

MHTG

Details ICAO MHTG (TGU)
Name Tegucigalpa Toncontin Intl
Region Honduras
Timezone America/Tegucigalpa (UTC-6.0)
Stats Elevation 3,294 ft / 1,004 m (AMSL)
Location 14.060883° -87.217197°
Runways 1
Magnetic Variation 0.661° W

METAR

MHTG 161600Z 03008KT 7000 VCSH FEW012 BKN024 20/18 Q1021 A3015 NOSIG

Decode

TAF

Not found

Destination Runways

ID Width Length Bearing (true) Bearing (mag) Surface Threshold Offset Overrun Length
02 148 ft / 45 m 6,140 ft / 1,872 m 18.87° 19.53° Asphalt 670 ft / 204 m 100 ft / 30 m
20 148 ft / 45 m 6,140 ft / 1,872 m 198.87° 199.53° Asphalt 0 ft / 0 m 200 ft / 61 m

Popular Alternatives